sensor_id;sensor_type;location;lat;lon;timestamp;temperature;humidity
24217;DHT22;12356;49.386;8.688;2023-07-09T00:02:28;23.40;8.80
24217;DHT22;12356;49.386;8.688;2023-07-09T00:04:58;23.50;8.50
24217;DHT22;12356;49.386;8.688;2023-07-09T00:07:31;23.40;9.30
24217;DHT22;12356;49.386;8.688;2023-07-09T00:10:02;23.40;9.90
24217;DHT22;12356;49.386;8.688;2023-07-09T00:12:33;23.30;9.90
24217;DHT22;12356;49.386;8.688;2023-07-09T00:15:04;23.30;10.90
24217;DHT22;12356;49.386;8.688;2023-07-09T00:17:35;23.40;9.90
24217;DHT22;12356;49.386;8.688;2023-07-09T00:20:09;23.30;10.50
24217;DHT22;12356;49.386;8.688;2023-07-09T00:22:42;23.30;10.30
24217;DHT22;12356;49.386;8.688;2023-07-09T00:25:19;23.30;10.40
24217;DHT22;12356;49.386;8.688;2023-07-09T00:27:50;23.30;10.90
24217;DHT22;12356;49.386;8.688;2023-07-09T00:30:23;23.20;11.00
24217;DHT22;12356;49.386;8.688;2023-07-09T00:32:53;23.20;11.60
24217;DHT22;12356;49.386;8.688;2023-07-09T00:35:24;23.30;11.20
24217;DHT22;12356;49.386;8.688;2023-07-09T00:37:55;23.30;12.20
24217;DHT22;12356;49.386;8.688;2023-07-09T00:40:30;23.20;11.90
24217;DHT22;12356;49.386;8.688;2023-07-09T00:43:01;23.10;12.20
24217;DHT22;12356;49.386;8.688;2023-07-09T00:45:32;23.10;11.50
24217;DHT22;12356;49.386;8.688;2023-07-09T00:48:06;23.20;11.50
24217;DHT22;12356;49.386;8.688;2023-07-09T00:50:41;23.20;11.80
24217;DHT22;12356;49.386;8.688;2023-07-09T00:53:32;23.10;12.70
24217;DHT22;12356;49.386;8.688;2023-07-09T00:56:07;23.00;12.40
24217;DHT22;12356;49.386;8.688;2023-07-09T00:58:42;23.00;12.50
24217;DHT22;12356;49.386;8.688;2023-07-09T01:01:16;23.10;11.80
24217;DHT22;12356;49.386;8.688;2023-07-09T01:03:52;23.00;12.70
24217;DHT22;12356;49.386;8.688;2023-07-09T01:06:28;23.00;13.10
24217;DHT22;12356;49.386;8.688;2023-07-09T01:09:03;23.00;13.00
24217;DHT22;12356;49.386;8.688;2023-07-09T01:11:34;22.90;13.10
24217;DHT22;12356;49.386;8.688;2023-07-09T01:14:11;22.90;13.00
24217;DHT22;12356;49.386;8.688;2023-07-09T01:16:45;22.90;13.80
24217;DHT22;12356;49.386;8.688;2023-07-09T01:19:22;22.90;14.00
24217;DHT22;12356;49.386;8.688;2023-07-09T01:22:01;22.90;13.00
24217;DHT22;12356;49.386;8.688;2023-07-09T01:27:28;22.90;14.40
24217;DHT22;12356;49.386;8.688;2023-07-09T01:30:02;22.90;14.30
24217;DHT22;12356;49.386;8.688;2023-07-09T01:32:33;22.90;14.20
24217;DHT22;12356;49.386;8.688;2023-07-09T01:35:05;22.90;14.70
24217;DHT22;12356;49.386;8.688;2023-07-09T01:37:37;22.80;14.70
24217;DHT22;12356;49.386;8.688;2023-07-09T01:40:10;22.80;15.00
24217;DHT22;12356;49.386;8.688;2023-07-09T01:42:41;22.80;15.40
24217;DHT22;12356;49.386;8.688;2023-07-09T01:45:12;22.80;14.60
24217;DHT22;12356;49.386;8.688;2023-07-09T01:47:43;22.80;14.70
24217;DHT22;12356;49.386;8.688;2023-07-09T01:50:14;22.80;14.90
24217;DHT22;12356;49.386;8.688;2023-07-09T01:52:47;22.70;14.90
24217;DHT22;12356;49.386;8.688;2023-07-09T01:55:20;22.70;14.90
24217;DHT22;12356;49.386;8.688;2023-07-09T01:57:51;22.60;15.60
24217;DHT22;12356;49.386;8.688;2023-07-09T02:00:22;22.60;16.00
24217;DHT22;12356;49.386;8.688;2023-07-09T02:02:53;22.50;16.50
24217;DHT22;12356;49.386;8.688;2023-07-09T02:05:24;22.50;16.70
24217;DHT22;12356;49.386;8.688;2023-07-09T02:07:55;22.50;17.00
24217;DHT22;12356;49.386;8.688;2023-07-09T02:10:26;22.50;17.30
24217;DHT22;12356;49.386;8.688;2023-07-09T02:12:56;22.50;16.70
24217;DHT22;12356;49.386;8.688;2023-07-09T02:15:27;22.50;16.40
24217;DHT22;12356;49.386;8.688;2023-07-09T02:17:58;22.50;16.50
24217;DHT22;12356;49.386;8.688;2023-07-09T02:20:29;22.50;16.40
24217;DHT22;12356;49.386;8.688;2023-07-09T02:22:59;22.50;16.00
24217;DHT22;12356;49.386;8.688;2023-07-09T02:25:30;22.50;16.30
24217;DHT22;12356;49.386;8.688;2023-07-09T02:28:00;22.50;16.40
24217;DHT22;12356;49.386;8.688;2023-07-09T02:30:31;22.40;16.70
24217;DHT22;12356;49.386;8.688;2023-07-09T02:33:02;22.40;17.20
24217;DHT22;12356;49.386;8.688;2023-07-09T02:35:32;22.40;17.10
24217;DHT22;12356;49.386;8.688;2023-07-09T02:38:04;22.40;17.00
24217;DHT22;12356;49.386;8.688;2023-07-09T02:40:34;22.40;17.80
24217;DHT22;12356;49.386;8.688;2023-07-09T02:43:05;22.30;17.50
24217;DHT22;12356;49.386;8.688;2023-07-09T02:45:35;22.40;17.20
24217;DHT22;12356;49.386;8.688;2023-07-09T02:48:06;22.30;17.60
24217;DHT22;12356;49.386;8.688;2023-07-09T02:50:36;22.30;17.50
24217;DHT22;12356;49.386;8.688;2023-07-09T02:53:07;22.30;18.10
24217;DHT22;12356;49.386;8.688;2023-07-09T02:55:38;22.20;18.10
24217;DHT22;12356;49.386;8.688;2023-07-09T02:58:08;22.20;18.20
24217;DHT22;12356;49.386;8.688;2023-07-09T03:00:39;22.20;18.50
24217;DHT22;12356;49.386;8.688;2023-07-09T03:03:09;22.10;19.10
24217;DHT22;12356;49.386;8.688;2023-07-09T03:05:40;22.10;19.40
24217;DHT22;12356;49.386;8.688;2023-07-09T03:08:10;22.00;19.20
24217;DHT22;12356;49.386;8.688;2023-07-09T03:10:41;22.00;19.00
24217;DHT22;12356;49.386;8.688;2023-07-09T03:13:11;22.00;19.50
24217;DHT22;12356;49.386;8.688;2023-07-09T03:15:42;22.00;19.30
24217;DHT22;12356;49.386;8.688;2023-07-09T03:18:12;22.00;19.30
24217;DHT22;12356;49.386;8.688;2023-07-09T03:20:43;22.00;19.40
24217;DHT22;12356;49.386;8.688;2023-07-09T03:23:14;22.00;19.50
24217;DHT22;12356;49.386;8.688;2023-07-09T03:25:44;22.10;19.00
24217;DHT22;12356;49.386;8.688;2023-07-09T03:28:16;22.10;18.60
24217;DHT22;12356;49.386;8.688;2023-07-09T03:30:48;22.10;19.20
24217;DHT22;12356;49.386;8.688;2023-07-09T03:33:19;22.10;18.80
24217;DHT22;12356;49.386;8.688;2023-07-09T03:35:51;22.10;18.00
24217;DHT22;12356;49.386;8.688;2023-07-09T03:38:22;22.10;19.00
24217;DHT22;12356;49.386;8.688;2023-07-09T03:40:53;22.00;19.00
24217;DHT22;12356;49.386;8.688;2023-07-09T03:43:24;22.00;19.20
24217;DHT22;12356;49.386;8.688;2023-07-09T03:45:55;22.00;19.30
24217;DHT22;12356;49.386;8.688;2023-07-09T03:48:27;22.00;19.30
24217;DHT22;12356;49.386;8.688;2023-07-09T03:50:58;22.00;19.30
24217;DHT22;12356;49.386;8.688;2023-07-09T03:53:28;21.90;19.40
24217;DHT22;12356;49.386;8.688;2023-07-09T03:55:59;21.90;19.30
24217;DHT22;12356;49.386;8.688;2023-07-09T03:58:30;21.90;19.60
24217;DHT22;12356;49.386;8.688;2023-07-09T04:01:01;21.80;19.90
24217;DHT22;12356;49.386;8.688;2023-07-09T04:03:31;21.90;20.40
24217;DHT22;12356;49.386;8.688;2023-07-09T04:06:02;21.90;20.10
24217;DHT22;12356;49.386;8.688;2023-07-09T04:08:33;21.90;20.20
24217;DHT22;12356;49.386;8.688;2023-07-09T04:11:03;21.80;21.30
24217;DHT22;12356;49.386;8.688;2023-07-09T04:13:34;21.80;20.70
24217;DHT22;12356;49.386;8.688;2023-07-09T04:16:05;21.80;21.20
24217;DHT22;12356;49.386;8.688;2023-07-09T04:18:35;21.80;21.50
24217;DHT22;12356;49.386;8.688;2023-07-09T04:21:06;21.80;21.30
24217;DHT22;12356;49.386;8.688;2023-07-09T04:23:37;21.80;21.50
24217;DHT22;12356;49.386;8.688;2023-07-09T04:26:14;21.80;21.80
24217;DHT22;12356;49.386;8.688;2023-07-09T04:28:44;21.80;22.10
24217;DHT22;12356;49.386;8.688;2023-07-09T04:31:15;21.80;22.00
24217;DHT22;12356;49.386;8.688;2023-07-09T04:33:46;21.80;22.30
24217;DHT22;12356;49.386;8.688;2023-07-09T04:36:16;21.80;22.50
24217;DHT22;12356;49.386;8.688;2023-07-09T04:38:47;21.70;22.00
24217;DHT22;12356;49.386;8.688;2023-07-09T04:41:18;21.80;21.90
24217;DHT22;12356;49.386;8.688;2023-07-09T04:43:49;21.80;21.60
24217;DHT22;12356;49.386;8.688;2023-07-09T04:46:19;21.80;21.50
24217;DHT22;12356;49.386;8.688;2023-07-09T04:48:50;21.80;21.60
24217;DHT22;12356;49.386;8.688;2023-07-09T04:51:20;21.80;21.60
24217;DHT22;12356;49.386;8.688;2023-07-09T04:53:51;21.80;21.60
24217;DHT22;12356;49.386;8.688;2023-07-09T04:56:22;21.80;21.60
24217;DHT22;12356;49.386;8.688;2023-07-09T04:58:53;21.90;22.10
24217;DHT22;12356;49.386;8.688;2023-07-09T05:01:23;21.80;23.30
24217;DHT22;12356;49.386;8.688;2023-07-09T05:03:54;21.80;23.40
24217;DHT22;12356;49.386;8.688;2023-07-09T05:06:25;21.80;23.60
24217;DHT22;12356;49.386;8.688;2023-07-09T05:08:56;21.80;24.20
24217;DHT22;12356;49.386;8.688;2023-07-09T05:11:26;21.80;26.00
24217;DHT22;12356;49.386;8.688;2023-07-09T05:13:57;21.70;25.60
24217;DHT22;12356;49.386;8.688;2023-07-09T05:16:27;21.70;24.90
24217;DHT22;12356;49.386;8.688;2023-07-09T05:18:58;21.70;24.90
24217;DHT22;12356;49.386;8.688;2023-07-09T05:21:28;21.70;25.20
24217;DHT22;12356;49.386;8.688;2023-07-09T05:23:59;21.70;24.80
24217;DHT22;12356;49.386;8.688;2023-07-09T05:26:30;21.80;25.30
24217;DHT22;12356;49.386;8.688;2023-07-09T05:29:02;21.80;25.20
24217;DHT22;12356;49.386;8.688;2023-07-09T05:31:33;21.80;25.30
24217;DHT22;12356;49.386;8.688;2023-07-09T05:34:04;21.80;25.90
24217;DHT22;12356;49.386;8.688;2023-07-09T05:36:34;21.80;25.80
24217;DHT22;12356;49.386;8.688;2023-07-09T05:39:05;21.80;27.10
24217;DHT22;12356;49.386;8.688;2023-07-09T05:41:36;21.80;28.30
24217;DHT22;12356;49.386;8.688;2023-07-09T05:44:06;21.80;28.80
24217;DHT22;12356;49.386;8.688;2023-07-09T05:46:37;21.90;28.60
24217;DHT22;12356;49.386;8.688;2023-07-09T05:49:08;21.90;26.90
24217;DHT22;12356;49.386;8.688;2023-07-09T05:51:39;22.00;26.40
24217;DHT22;12356;49.386;8.688;2023-07-09T05:54:10;22.00;25.90
24217;DHT22;12356;49.386;8.688;2023-07-09T05:56:41;22.10;26.10
24217;DHT22;12356;49.386;8.688;2023-07-09T05:59:12;22.20;25.80
24217;DHT22;12356;49.386;8.688;2023-07-09T06:01:42;22.20;25.70
24217;DHT22;12356;49.386;8.688;2023-07-09T06:04:13;22.30;25.60
24217;DHT22;12356;49.386;8.688;2023-07-09T06:06:44;22.30;25.90
24217;DHT22;12356;49.386;8.688;2023-07-09T06:09:15;22.40;26.40
24217;DHT22;12356;49.386;8.688;2023-07-09T06:11:46;22.40;25.90
24217;DHT22;12356;49.386;8.688;2023-07-09T06:14:16;22.50;24.30
24217;DHT22;12356;49.386;8.688;2023-07-09T06:16:47;22.50;25.20
24217;DHT22;12356;49.386;8.688;2023-07-09T06:19:18;22.60;25.50
24217;DHT22;12356;49.386;8.688;2023-07-09T06:21:48;22.60;24.50
24217;DHT22;12356;49.386;8.688;2023-07-09T06:24:19;22.70;24.90
24217;DHT22;12356;49.386;8.688;2023-07-09T06:26:49;22.80;24.60
24217;DHT22;12356;49.386;8.688;2023-07-09T06:29:20;22.80;22.40
24217;DHT22;12356;49.386;8.688;2023-07-09T06:31:50;22.80;22.30
24217;DHT22;12356;49.386;8.688;2023-07-09T06:34:21;22.90;20.90
24217;DHT22;12356;49.386;8.688;2023-07-09T06:36:52;22.90;20.80
24217;DHT22;12356;49.386;8.688;2023-07-09T06:39:22;23.10;21.30
24217;DHT22;12356;49.386;8.688;2023-07-09T06:41:53;23.10;19.30
24217;DHT22;12356;49.386;8.688;2023-07-09T06:44:23;23.20;19.20
24217;DHT22;12356;49.386;8.688;2023-07-09T06:46:55;23.20;19.00
24217;DHT22;12356;49.386;8.688;2023-07-09T06:49:27;23.30;18.70
24217;DHT22;12356;49.386;8.688;2023-07-09T06:51:58;23.30;18.30
24217;DHT22;12356;49.386;8.688;2023-07-09T06:54:28;23.40;18.80
24217;DHT22;12356;49.386;8.688;2023-07-09T06:56:59;23.40;19.20
24217;DHT22;12356;49.386;8.688;2023-07-09T06:59:29;23.40;18.40
24217;DHT22;12356;49.386;8.688;2023-07-09T07:02:00;23.50;18.20
24217;DHT22;12356;49.386;8.688;2023-07-09T07:04:31;23.60;18.40
24217;DHT22;12356;49.386;8.688;2023-07-09T07:07:01;23.60;18.60
24217;DHT22;12356;49.386;8.688;2023-07-09T07:09:32;23.70;16.90
24217;DHT22;12356;49.386;8.688;2023-07-09T07:12:03;23.70;15.30
24217;DHT22;12356;49.386;8.688;2023-07-09T07:14:33;23.80;15.40
24217;DHT22;12356;49.386;8.688;2023-07-09T07:17:04;23.80;15.40
24217;DHT22;12356;49.386;8.688;2023-07-09T07:19:34;23.90;16.10
24217;DHT22;12356;49.386;8.688;2023-07-09T07:22:05;24.00;16.10
24217;DHT22;12356;49.386;8.688;2023-07-09T07:24:37;24.00;16.60
24217;DHT22;12356;49.386;8.688;2023-07-09T07:27:08;24.10;18.30
24217;DHT22;12356;49.386;8.688;2023-07-09T07:29:39;24.20;18.50
24217;DHT22;12356;49.386;8.688;2023-07-09T07:32:09;24.30;18.20
24217;DHT22;12356;49.386;8.688;2023-07-09T07:34:40;24.30;17.30
24217;DHT22;12356;49.386;8.688;2023-07-09T07:37:10;24.50;15.60
24217;DHT22;12356;49.386;8.688;2023-07-09T07:39:42;24.60;13.70
24217;DHT22;12356;49.386;8.688;2023-07-09T07:42:12;24.70;13.00
24217;DHT22;12356;49.386;8.688;2023-07-09T07:44:43;24.80;14.30
24217;DHT22;12356;49.386;8.688;2023-07-09T07:47:13;24.90;16.30
24217;DHT22;12356;49.386;8.688;2023-07-09T07:49:44;25.00;15.30
24217;DHT22;12356;49.386;8.688;2023-07-09T07:52:14;25.10;15.20
24217;DHT22;12356;49.386;8.688;2023-07-09T07:54:45;25.20;15.10
24217;DHT22;12356;49.386;8.688;2023-07-09T07:57:16;25.30;12.40
24217;DHT22;12356;49.386;8.688;2023-07-09T07:59:46;25.40;12.50
24217;DHT22;12356;49.386;8.688;2023-07-09T08:02:17;25.50;12.70
24217;DHT22;12356;49.386;8.688;2023-07-09T08:04:48;25.50;12.90
24217;DHT22;12356;49.386;8.688;2023-07-09T08:07:19;25.60;11.80
24217;DHT22;12356;49.386;8.688;2023-07-09T08:09:49;25.70;12.10
24217;DHT22;12356;49.386;8.688;2023-07-09T08:12:20;25.70;12.80
24217;DHT22;12356;49.386;8.688;2023-07-09T08:14:50;25.80;12.80
24217;DHT22;12356;49.386;8.688;2023-07-09T08:17:21;25.80;11.80
24217;DHT22;12356;49.386;8.688;2023-07-09T08:19:53;25.90;11.70
24217;DHT22;12356;49.386;8.688;2023-07-09T08:22:23;26.00;11.80
24217;DHT22;12356;49.386;8.688;2023-07-09T08:24:54;26.10;8.30
24217;DHT22;12356;49.386;8.688;2023-07-09T08:27:25;26.10;9.20
24217;DHT22;12356;49.386;8.688;2023-07-09T08:29:55;26.20;10.20
24217;DHT22;12356;49.386;8.688;2023-07-09T08:32:26;26.30;7.80
24217;DHT22;12356;49.386;8.688;2023-07-09T08:34:58;26.40;7.20
24217;DHT22;12356;49.386;8.688;2023-07-09T08:37:29;26.50;7.00
24217;DHT22;12356;49.386;8.688;2023-07-09T08:39:59;26.50;8.10
24217;DHT22;12356;49.386;8.688;2023-07-09T08:42:37;26.60;8.40
24217;DHT22;12356;49.386;8.688;2023-07-09T08:45:25;26.70;8.00
24217;DHT22;12356;49.386;8.688;2023-07-09T08:48:17;26.70;6.60
24217;DHT22;12356;49.386;8.688;2023-07-09T08:50:55;26.80;6.50
24217;DHT22;12356;49.386;8.688;2023-07-09T08:53:44;26.80;7.00
24217;DHT22;12356;49.386;8.688;2023-07-09T08:56:17;26.90;7.30
24217;DHT22;12356;49.386;8.688;2023-07-09T08:58:49;27.00;5.50
24217;DHT22;12356;49.386;8.688;2023-07-09T09:01:21;27.00;6.30
24217;DHT22;12356;49.386;8.688;2023-07-09T09:03:57;27.10;5.40
24217;DHT22;12356;49.386;8.688;2023-07-09T09:06:31;27.20;5.80
24217;DHT22;12356;49.386;8.688;2023-07-09T09:11:43;27.30;6.00
24217;DHT22;12356;49.386;8.688;2023-07-09T09:16:59;27.40;3.40
24217;DHT22;12356;49.386;8.688;2023-07-09T09:19:33;27.50;3.30
24217;DHT22;12356;49.386;8.688;2023-07-09T09:22:11;27.60;3.90
24217;DHT22;12356;49.386;8.688;2023-07-09T09:27:33;27.70;4.50
24217;DHT22;12356;49.386;8.688;2023-07-09T09:30:04;27.80;3.00
24217;DHT22;12356;49.386;8.688;2023-07-09T09:32:53;27.80;1.90
24217;DHT22;12356;49.386;8.688;2023-07-09T09:35:30;27.90;2.00
24217;DHT22;12356;49.386;8.688;2023-07-09T09:38:02;27.90;2.30
24217;DHT22;12356;49.386;8.688;2023-07-09T09:40:35;27.90;1.80
24217;DHT22;12356;49.386;8.688;2023-07-09T09:43:15;28.00;1.00
24217;DHT22;12356;49.386;8.688;2023-07-09T09:45:48;28.10;1.80
24217;DHT22;12356;49.386;8.688;2023-07-09T09:48:27;28.20;2.20
24217;DHT22;12356;49.386;8.688;2023-07-09T09:51:03;28.30;1.00
24217;DHT22;12356;49.386;8.688;2023-07-09T09:53:39;28.40;1.00
24217;DHT22;12356;49.386;8.688;2023-07-09T09:56:25;28.50;1.00
24217;DHT22;12356;49.386;8.688;2023-07-09T09:58:57;28.50;1.00
24217;DHT22;12356;49.386;8.688;2023-07-09T10:01:31;28.60;1.00
24217;DHT22;12356;49.386;8.688;2023-07-09T10:04:03;28.70;1.00
24217;DHT22;12356;49.386;8.688;2023-07-09T10:06:41;28.70;1.00
24217;DHT22;12356;49.386;8.688;2023-07-09T10:09:38;28.80;1.00
24217;DHT22;12356;49.386;8.688;2023-07-09T10:17:53;29.00;1.00
24217;DHT22;12356;49.386;8.688;2023-07-09T10:20:36;29.00;1.00
24217;DHT22;12356;49.386;8.688;2023-07-09T10:23:27;29.10;1.00
24217;DHT22;12356;49.386;8.688;2023-07-09T10:26:20;29.20;1.00
24217;DHT22;12356;49.386;8.688;2023-07-09T10:32:07;29.40;1.00
24217;DHT22;12356;49.386;8.688;2023-07-09T10:40:15;29.50;1.00
24217;DHT22;12356;49.386;8.688;2023-07-09T10:42:53;29.50;1.00
24217;DHT22;12356;49.386;8.688;2023-07-09T10:45:40;29.50;1.00
24217;DHT22;12356;49.386;8.688;2023-07-09T10:48:47;29.60;1.00
24217;DHT22;12356;49.386;8.688;2023-07-09T10:51:28;29.60;1.00
24217;DHT22;12356;49.386;8.688;2023-07-09T10:54:42;29.60;1.00
24217;DHT22;12356;49.386;8.688;2023-07-09T10:57:00;29.70;1.00
24217;DHT22;12356;49.386;8.688;2023-07-09T10:59:34;29.80;1.00
24217;DHT22;12356;49.386;8.688;2023-07-09T11:02:30;29.90;1.00
24217;DHT22;12356;49.386;8.688;2023-07-09T11:05:05;30.00;1.00
24217;DHT22;12356;49.386;8.688;2023-07-09T11:07:52;30.00;1.00
24217;DHT22;12356;49.386;8.688;2023-07-09T11:10:36;30.00;1.00
24217;DHT22;12356;49.386;8.688;2023-07-09T11:13:15;30.10;1.00
24217;DHT22;12356;49.386;8.688;2023-07-09T11:15:49;30.10;1.00
24217;DHT22;12356;49.386;8.688;2023-07-09T11:18:26;30.20;1.00
24217;DHT22;12356;49.386;8.688;2023-07-09T11:21:03;30.30;1.00
24217;DHT22;12356;49.386;8.688;2023-07-09T11:23:57;30.30;1.00
24217;DHT22;12356;49.386;8.688;2023-07-09T11:26:35;30.40;1.00
24217;DHT22;12356;49.386;8.688;2023-07-09T11:31:39;30.50;1.00
24217;DHT22;12356;49.386;8.688;2023-07-09T11:34:17;30.50;1.00
24217;DHT22;12356;49.386;8.688;2023-07-09T11:36:51;30.60;1.00
24217;DHT22;12356;49.386;8.688;2023-07-09T11:39:39;30.70;1.00
24217;DHT22;12356;49.386;8.688;2023-07-09T11:42:32;30.70;1.00
24217;DHT22;12356;49.386;8.688;2023-07-09T11:45:11;30.80;1.00
24217;DHT22;12356;49.386;8.688;2023-07-09T11:47:51;30.80;1.00
24217;DHT22;12356;49.386;8.688;2023-07-09T11:50:28;30.80;1.00
24217;DHT22;12356;49.386;8.688;2023-07-09T11:53:12;30.90;1.00
24217;DHT22;12356;49.386;8.688;2023-07-09T11:55:48;30.90;1.00
24217;DHT22;12356;49.386;8.688;2023-07-09T11:58:19;30.90;1.00
24217;DHT22;12356;49.386;8.688;2023-07-09T12:00:52;30.90;1.00
24217;DHT22;12356;49.386;8.688;2023-07-09T12:03:34;31.00;1.00
24217;DHT22;12356;49.386;8.688;2023-07-09T12:06:13;31.00;1.00
24217;DHT22;12356;49.386;8.688;2023-07-09T12:08:47;31.00;1.00
24217;DHT22;12356;49.386;8.688;2023-07-09T12:11:24;31.00;1.00
24217;DHT22;12356;49.386;8.688;2023-07-09T12:14:05;31.10;1.00
24217;DHT22;12356;49.386;8.688;2023-07-09T12:16:40;31.20;1.00
24217;DHT22;12356;49.386;8.688;2023-07-09T12:19:12;31.20;1.00
24217;DHT22;12356;49.386;8.688;2023-07-09T12:21:46;31.20;1.00
24217;DHT22;12356;49.386;8.688;2023-07-09T12:24:21;31.20;1.00
24217;DHT22;12356;49.386;8.688;2023-07-09T12:26:54;31.20;1.00
24217;DHT22;12356;49.386;8.688;2023-07-09T12:29:25;31.30;1.00
24217;DHT22;12356;49.386;8.688;2023-07-09T12:32:02;31.30;1.00
24217;DHT22;12356;49.386;8.688;2023-07-09T12:34:33;31.30;1.00
24217;DHT22;12356;49.386;8.688;2023-07-09T12:37:04;31.40;1.00
24217;DHT22;12356;49.386;8.688;2023-07-09T12:39:35;31.50;1.00
24217;DHT22;12356;49.386;8.688;2023-07-09T12:42:20;31.50;1.00
24217;DHT22;12356;49.386;8.688;2023-07-09T12:44:51;31.50;1.00
24217;DHT22;12356;49.386;8.688;2023-07-09T12:47:24;31.50;1.00
24217;DHT22;12356;49.386;8.688;2023-07-09T12:50:14;31.50;1.00
24217;DHT22;12356;49.386;8.688;2023-07-09T12:52:48;31.60;1.00
24217;DHT22;12356;49.386;8.688;2023-07-09T12:55:29;31.60;1.00
24217;DHT22;12356;49.386;8.688;2023-07-09T12:58:02;31.60;1.00
24217;DHT22;12356;49.386;8.688;2023-07-09T13:00:33;31.60;1.00
24217;DHT22;12356;49.386;8.688;2023-07-09T13:03:12;31.70;1.00
24217;DHT22;12356;49.386;8.688;2023-07-09T13:05:56;31.70;1.00
24217;DHT22;12356;49.386;8.688;2023-07-09T13:08:29;31.80;1.00
24217;DHT22;12356;49.386;8.688;2023-07-09T13:11:01;31.80;1.00
24217;DHT22;12356;49.386;8.688;2023-07-09T13:13:31;31.70;1.00
24217;DHT22;12356;49.386;8.688;2023-07-09T13:16:02;31.80;1.00
24217;DHT22;12356;49.386;8.688;2023-07-09T13:18:32;31.80;1.00
24217;DHT22;12356;49.386;8.688;2023-07-09T13:21:13;31.80;1.00
24217;DHT22;12356;49.386;8.688;2023-07-09T13:23:45;31.80;1.00
24217;DHT22;12356;49.386;8.688;2023-07-09T13:26:17;31.80;1.00
24217;DHT22;12356;49.386;8.688;2023-07-09T13:28:47;31.80;1.00
24217;DHT22;12356;49.386;8.688;2023-07-09T13:31:20;31.80;1.00
24217;DHT22;12356;49.386;8.688;2023-07-09T13:33:54;31.80;1.00
24217;DHT22;12356;49.386;8.688;2023-07-09T13:36:25;31.80;1.00
24217;DHT22;12356;49.386;8.688;2023-07-09T13:38:56;31.80;1.00
24217;DHT22;12356;49.386;8.688;2023-07-09T13:41:26;31.80;1.00
24217;DHT22;12356;49.386;8.688;2023-07-09T13:43:57;31.90;1.00
24217;DHT22;12356;49.386;8.688;2023-07-09T13:46:29;31.80;1.00
24217;DHT22;12356;49.386;8.688;2023-07-09T13:48:59;31.90;1.00
24217;DHT22;12356;49.386;8.688;2023-07-09T13:51:33;31.90;1.00
24217;DHT22;12356;49.386;8.688;2023-07-09T13:54:20;31.90;1.00
24217;DHT22;12356;49.386;8.688;2023-07-09T13:56:51;32.00;1.00
24217;DHT22;12356;49.386;8.688;2023-07-09T13:59:24;32.00;1.00
24217;DHT22;12356;49.386;8.688;2023-07-09T14:01:57;32.00;1.00
24217;DHT22;12356;49.386;8.688;2023-07-09T14:04:28;32.00;1.00
24217;DHT22;12356;49.386;8.688;2023-07-09T14:06:58;32.10;1.00
24217;DHT22;12356;49.386;8.688;2023-07-09T14:09:29;32.00;1.00
24217;DHT22;12356;49.386;8.688;2023-07-09T14:12:00;32.00;1.00
24217;DHT22;12356;49.386;8.688;2023-07-09T14:14:32;32.00;1.00
24217;DHT22;12356;49.386;8.688;2023-07-09T14:17:03;32.00;1.00
24217;DHT22;12356;49.386;8.688;2023-07-09T14:19:34;32.00;1.00
24217;DHT22;12356;49.386;8.688;2023-07-09T14:22:52;32.10;1.00
24217;DHT22;12356;49.386;8.688;2023-07-09T14:25:24;32.10;1.00
24217;DHT22;12356;49.386;8.688;2023-07-09T14:27:55;32.10;1.00
24217;DHT22;12356;49.386;8.688;2023-07-09T14:30:26;32.10;1.00
24217;DHT22;12356;49.386;8.688;2023-07-09T14:32:56;32.10;1.00
24217;DHT22;12356;49.386;8.688;2023-07-09T14:35:28;32.00;1.00
24217;DHT22;12356;49.386;8.688;2023-07-09T14:38:00;32.10;1.00
24217;DHT22;12356;49.386;8.688;2023-07-09T14:40:30;32.00;1.00
24217;DHT22;12356;49.386;8.688;2023-07-09T14:43:01;32.10;1.00
24217;DHT22;12356;49.386;8.688;2023-07-09T14:45:33;32.10;1.00
24217;DHT22;12356;49.386;8.688;2023-07-09T14:48:13;32.10;1.00
24217;DHT22;12356;49.386;8.688;2023-07-09T14:50:45;32.10;1.00
24217;DHT22;12356;49.386;8.688;2023-07-09T14:53:21;32.20;1.00
24217;DHT22;12356;49.386;8.688;2023-07-09T14:55:53;32.20;1.00
24217;DHT22;12356;49.386;8.688;2023-07-09T14:58:24;32.20;1.00
24217;DHT22;12356;49.386;8.688;2023-07-09T15:00:55;32.20;1.00
24217;DHT22;12356;49.386;8.688;2023-07-09T15:03:26;32.30;1.00
24217;DHT22;12356;49.386;8.688;2023-07-09T15:05:57;32.30;1.00
24217;DHT22;12356;49.386;8.688;2023-07-09T15:08:27;32.30;1.00
24217;DHT22;12356;49.386;8.688;2023-07-09T15:10:58;32.30;1.00
24217;DHT22;12356;49.386;8.688;2023-07-09T15:13:31;32.30;1.00
24217;DHT22;12356;49.386;8.688;2023-07-09T15:16:04;32.30;1.00
24217;DHT22;12356;49.386;8.688;2023-07-09T15:18:34;32.30;1.00
24217;DHT22;12356;49.386;8.688;2023-07-09T15:21:06;32.30;1.00
24217;DHT22;12356;49.386;8.688;2023-07-09T15:23:40;32.30;1.00
24217;DHT22;12356;49.386;8.688;2023-07-09T15:26:15;32.30;1.00
24217;DHT22;12356;49.386;8.688;2023-07-09T15:28:46;32.20;1.00
24217;DHT22;12356;49.386;8.688;2023-07-09T15:31:20;32.20;1.00
24217;DHT22;12356;49.386;8.688;2023-07-09T15:33:50;32.20;1.00
24217;DHT22;12356;49.386;8.688;2023-07-09T15:36:21;32.10;1.00
24217;DHT22;12356;49.386;8.688;2023-07-09T15:38:52;32.20;1.00
24217;DHT22;12356;49.386;8.688;2023-07-09T15:41:22;32.20;1.00
24217;DHT22;12356;49.386;8.688;2023-07-09T15:43:53;32.10;1.00
24217;DHT22;12356;49.386;8.688;2023-07-09T15:46:23;32.20;1.00
24217;DHT22;12356;49.386;8.688;2023-07-09T15:48:55;32.20;1.00
24217;DHT22;12356;49.386;8.688;2023-07-09T15:51:26;32.10;1.00
24217;DHT22;12356;49.386;8.688;2023-07-09T15:53:56;32.20;1.00
24217;DHT22;12356;49.386;8.688;2023-07-09T15:56:28;32.10;1.00
24217;DHT22;12356;49.386;8.688;2023-07-09T15:59:01;32.00;1.00
24217;DHT22;12356;49.386;8.688;2023-07-09T16:01:31;32.00;1.00
24217;DHT22;12356;49.386;8.688;2023-07-09T16:04:02;32.00;1.00
24217;DHT22;12356;49.386;8.688;2023-07-09T16:06:39;31.90;1.00
24217;DHT22;12356;49.386;8.688;2023-07-09T16:09:10;31.90;1.00
24217;DHT22;12356;49.386;8.688;2023-07-09T16:11:54;31.90;1.00
24217;DHT22;12356;49.386;8.688;2023-07-09T16:14:27;31.90;1.00
24217;DHT22;12356;49.386;8.688;2023-07-09T16:17:00;31.80;1.00
24217;DHT22;12356;49.386;8.688;2023-07-09T16:19:31;31.70;1.00
24217;DHT22;12356;49.386;8.688;2023-07-09T16:22:05;31.60;1.00
24217;DHT22;12356;49.386;8.688;2023-07-09T16:24:36;31.60;1.00
24217;DHT22;12356;49.386;8.688;2023-07-09T16:27:12;31.50;1.00
24217;DHT22;12356;49.386;8.688;2023-07-09T16:29:45;31.40;1.00
24217;DHT22;12356;49.386;8.688;2023-07-09T16:32:16;31.40;1.00
24217;DHT22;12356;49.386;8.688;2023-07-09T16:34:46;31.30;1.00
24217;DHT22;12356;49.386;8.688;2023-07-09T16:37:25;31.20;1.00
24217;DHT22;12356;49.386;8.688;2023-07-09T16:39:56;31.20;1.00
24217;DHT22;12356;49.386;8.688;2023-07-09T16:42:26;31.10;1.00
24217;DHT22;12356;49.386;8.688;2023-07-09T16:44:57;31.10;1.00